createdAt,value
2019-03-16T00:00:05.704Z,8.80
2019-03-16T00:05:07.233Z,8.70
2019-03-16T00:10:09.452Z,8.70
2019-03-16T00:15:11.019Z,8.80
2019-03-16T00:20:12.392Z,8.90
2019-03-16T00:25:13.828Z,8.90
2019-03-16T00:30:15.259Z,8.90
2019-03-16T00:35:16.802Z,9.00
2019-03-16T00:40:18.419Z,9.00
2019-03-16T00:45:19.956Z,9.00
2019-03-16T00:50:21.365Z,9.00
2019-03-16T00:55:22.736Z,9.00
2019-03-16T01:00:25.063Z,9.00
2019-03-16T01:05:26.478Z,9.00
2019-03-16T01:10:28.283Z,9.00
2019-03-16T01:15:29.826Z,9.00
2019-03-16T01:20:31.276Z,8.90
2019-03-16T01:25:32.737Z,8.90
2019-03-16T01:30:34.239Z,8.90
2019-03-16T01:35:35.671Z,8.90
2019-03-16T01:40:37.068Z,8.80
2019-03-16T01:45:38.397Z,8.90
2019-03-16T01:50:39.707Z,8.80
2019-03-16T01:55:41.134Z,8.80
2019-03-16T02:00:42.876Z,8.80
2019-03-16T02:05:44.338Z,8.70
2019-03-16T02:10:48.391Z,8.70
2019-03-16T02:15:49.766Z,8.70
2019-03-16T02:20:51.496Z,8.60
2019-03-16T02:25:52.851Z,8.60
2019-03-16T02:30:54.203Z,8.60
2019-03-16T02:35:55.508Z,8.50
2019-03-16T02:40:56.868Z,8.50
2019-03-16T02:45:58.261Z,8.40
2019-03-16T02:51:00.673Z,8.40
2019-03-16T02:56:02.533Z,8.30
2019-03-16T03:01:04.052Z,8.30
2019-03-16T03:06:05.429Z,8.30
2019-03-16T03:11:08.297Z,8.30
2019-03-16T03:16:09.587Z,8.30
2019-03-16T03:21:11.160Z,8.20
2019-03-16T03:26:12.477Z,8.20
2019-03-16T03:31:15.671Z,8.20
2019-03-16T03:36:17.090Z,8.20
2019-03-16T03:41:20.351Z,8.20
2019-03-16T03:46:21.647Z,8.20
2019-03-16T03:51:23.254Z,8.20
2019-03-16T03:56:24.760Z,8.10
2019-03-16T04:01:26.760Z,8.10
2019-03-16T04:06:28.602Z,8.10
2019-03-16T04:11:31.315Z,8.10
2019-03-16T04:16:32.688Z,8.10
2019-03-16T04:21:36.217Z,8.10
2019-03-16T04:26:37.501Z,8.10
2019-03-16T04:31:39.340Z,8.10
2019-03-16T04:36:40.744Z,8.10
2019-03-16T04:41:44.848Z,8.10
2019-03-16T04:46:46.485Z,8.10
2019-03-16T04:51:47.941Z,8.10
2019-03-16T04:56:49.529Z,8.00
2019-03-16T05:01:52.209Z,8.00
2019-03-16T05:06:53.630Z,8.00
2019-03-16T05:11:55.136Z,8.00
2019-03-16T05:16:56.527Z,8.00
2019-03-16T05:21:57.857Z,8.00
2019-03-16T05:26:59.468Z,8.00
2019-03-16T05:32:00.847Z,8.10
2019-03-16T05:37:04.183Z,8.10
2019-03-16T05:42:06.030Z,8.10
2019-03-16T05:47:09.242Z,8.10
2019-03-16T05:52:10.650Z,8.20
2019-03-16T05:57:12.120Z,8.20
2019-03-16T06:02:13.559Z,8.40
2019-03-16T06:07:14.965Z,8.60
2019-03-16T06:12:16.523Z,8.90
2019-03-16T06:17:17.905Z,9.10
2019-03-16T06:22:20.503Z,9.20
2019-03-16T06:27:21.925Z,9.30
2019-03-16T06:32:23.226Z,9.40
2019-03-16T06:37:25.008Z,9.50
2019-03-16T06:42:26.370Z,9.50
2019-03-16T06:47:27.896Z,9.60
2019-03-16T06:52:29.846Z,9.60
2019-03-16T06:57:31.194Z,9.60
2019-03-16T07:02:33.087Z,9.60
2019-03-16T07:07:34.563Z,9.70
2019-03-16T07:12:35.951Z,9.70
2019-03-16T07:17:37.620Z,9.70
2019-03-16T07:22:39.119Z,9.70
2019-03-16T07:27:40.544Z,9.70
2019-03-16T07:32:41.969Z,9.70
2019-03-16T07:37:44.523Z,9.70
2019-03-16T07:42:46.163Z,9.80
2019-03-16T07:47:48.042Z,9.70
2019-03-16T07:52:49.560Z,9.70
2019-03-16T07:57:50.991Z,9.70
2019-03-16T08:02:52.891Z,9.70
2019-03-16T08:07:55.029Z,9.70
2019-03-16T08:12:56.827Z,9.70
2019-03-16T08:17:58.595Z,9.70
2019-03-16T08:22:59.879Z,9.80
2019-03-16T08:28:02.276Z,9.80
2019-03-16T08:33:03.945Z,9.80
2019-03-16T08:38:05.724Z,9.80
2019-03-16T08:43:09.382Z,9.80
2019-03-16T08:48:22.144Z,9.80
2019-03-16T08:53:15.168Z,9.80
2019-03-16T08:58:16.625Z,9.80
2019-03-16T09:03:19.700Z,9.80
2019-03-16T09:08:21.019Z,9.80
2019-03-16T09:13:22.361Z,9.90
2019-03-16T09:18:24.164Z,10.00
2019-03-16T09:23:25.554Z,10.10
2019-03-16T09:28:26.958Z,10.30
2019-03-16T09:33:28.447Z,10.50
2019-03-16T09:38:29.807Z,10.60
2019-03-16T09:43:31.818Z,10.70
2019-03-16T09:48:33.229Z,10.90
2019-03-16T09:53:34.596Z,11.00
2019-03-16T09:58:35.916Z,11.10
2019-03-16T10:03:37.520Z,11.10
2019-03-16T10:08:40.811Z,11.00
2019-03-16T10:13:42.251Z,11.00
2019-03-16T10:18:43.608Z,10.90
2019-03-16T10:23:46.416Z,10.90
2019-03-16T10:28:51.350Z,10.90
2019-03-16T10:33:54.622Z,10.90
2019-03-16T10:38:56.238Z,10.90
2019-03-16T10:44:16.279Z,10.90
2019-03-16T10:49:19.962Z,10.80
2019-03-16T10:54:21.344Z,10.80
2019-03-16T10:59:23.830Z,10.80
2019-03-16T11:04:25.559Z,10.80
2019-03-16T11:09:27.039Z,10.80
2019-03-16T11:14:28.392Z,10.70
2019-03-16T11:19:30.046Z,10.70
2019-03-16T11:24:31.600Z,10.70
2019-03-16T11:29:33.294Z,10.80
2019-03-16T11:34:34.914Z,10.80
2019-03-16T11:39:36.642Z,10.80
2019-03-16T11:44:37.928Z,10.80
2019-03-16T11:49:39.479Z,10.80
2019-03-16T11:54:40.807Z,10.80
2019-03-16T11:59:42.356Z,11.00
2019-03-16T12:04:43.781Z,11.20
2019-03-16T12:09:45.080Z,11.20
2019-03-16T12:14:46.534Z,11.20
2019-03-16T12:19:48.458Z,11.10
2019-03-16T12:24:51.117Z,11.20
2019-03-16T12:29:52.550Z,11.30
2019-03-16T12:34:54.041Z,11.40
2019-03-16T12:39:55.654Z,11.40
2019-03-16T12:44:58.113Z,11.40
2019-03-16T12:49:59.676Z,11.30
2019-03-16T12:55:01.071Z,11.30
2019-03-16T13:00:16.138Z,11.20
2019-03-16T13:05:17.843Z,11.20
2019-03-16T13:10:22.724Z,11.20
2019-03-16T13:15:24.034Z,11.20
2019-03-16T13:20:25.818Z,11.20
2019-03-16T13:25:27.498Z,11.30
2019-03-16T13:30:28.844Z,11.30
2019-03-16T13:35:30.421Z,11.40
2019-03-16T13:40:31.720Z,11.40
2019-03-16T13:45:33.417Z,11.40
2019-03-16T13:50:53.681Z,11.40
2019-03-16T13:55:54.970Z,11.40
2019-03-16T14:00:56.305Z,11.30
2019-03-16T14:05:57.603Z,11.30
2019-03-16T14:10:59.010Z,11.30
2019-03-16T14:16:00.955Z,11.20
2019-03-16T14:21:02.599Z,11.30
2019-03-16T14:26:06.101Z,11.30
2019-03-16T14:31:07.384Z,11.30
2019-03-16T14:36:08.758Z,11.20
2019-03-16T14:41:12.316Z,11.20
2019-03-16T14:46:15.018Z,11.30
2019-03-16T14:51:16.521Z,11.30
2019-03-16T14:56:17.835Z,11.30
2019-03-16T15:01:19.433Z,11.30
2019-03-16T15:06:24.246Z,11.30
2019-03-16T15:11:25.768Z,11.30
2019-03-16T15:16:27.140Z,11.30
2019-03-16T15:21:28.630Z,11.30
2019-03-16T15:26:30.047Z,11.40
2019-03-16T15:31:31.499Z,11.40
2019-03-16T15:36:32.963Z,11.50
2019-03-16T15:41:34.512Z,11.50
2019-03-16T15:46:36.197Z,11.50
2019-03-16T15:51:38.353Z,11.50
2019-03-16T15:56:39.964Z,11.50
2019-03-16T16:01:41.509Z,11.40
2019-03-16T16:06:44.096Z,11.40
2019-03-16T16:11:45.538Z,11.40
2019-03-16T16:16:47.173Z,11.40
2019-03-16T16:21:48.639Z,11.40
2019-03-16T16:26:49.957Z,11.40
2019-03-16T16:31:51.237Z,11.40
2019-03-16T16:36:52.683Z,11.40
2019-03-16T16:41:54.199Z,11.40
2019-03-16T16:46:57.318Z,11.40
2019-03-16T16:51:58.616Z,11.30
2019-03-16T16:56:59.979Z,11.30
2019-03-16T17:02:01.522Z,11.30
2019-03-16T17:07:02.982Z,11.20
2019-03-16T17:12:04.829Z,11.20
2019-03-16T17:17:34.555Z,11.20
2019-03-16T17:22:28.133Z,11.10
2019-03-16T17:27:29.443Z,11.10
2019-03-16T17:32:30.951Z,11.10
2019-03-16T17:37:32.279Z,11.10
2019-03-16T17:42:33.666Z,11.00
2019-03-16T17:47:34.964Z,11.00
2019-03-16T17:52:36.406Z,11.00
2019-03-16T17:57:45.088Z,10.90
2019-03-16T18:02:52.820Z,10.90
2019-03-16T18:07:55.040Z,10.90
2019-03-16T18:12:56.340Z,10.90
2019-03-16T18:18:01.655Z,10.80
2019-03-16T18:23:03.303Z,10.80
2019-03-16T18:28:04.715Z,10.80
2019-03-16T18:33:06.137Z,10.80
2019-03-16T18:38:07.575Z,10.80
2019-03-16T18:43:27.605Z,10.80
2019-03-16T18:48:30.391Z,10.80
2019-03-16T18:53:32.168Z,10.80
2019-03-16T18:59:47.722Z,10.80
2019-03-16T19:03:37.127Z,10.80
2019-03-16T19:08:39.053Z,10.90
2019-03-16T19:13:40.455Z,10.90
2019-03-16T19:18:41.865Z,10.90
2019-03-16T19:23:43.432Z,10.90
2019-03-16T19:28:46.709Z,11.00
2019-03-16T19:33:48.200Z,11.00
2019-03-16T19:38:49.518Z,11.10
2019-03-16T19:43:50.888Z,11.10
2019-03-16T19:48:52.506Z,11.20
2019-03-16T19:53:56.040Z,11.20
2019-03-16T19:59:00.880Z,11.20
2019-03-16T20:04:02.966Z,11.20
2019-03-16T20:09:05.727Z,11.20
2019-03-16T20:19:27.292Z,11.30
2019-03-16T20:24:29.639Z,11.30
2019-03-16T20:29:31.110Z,11.30
2019-03-16T20:34:32.575Z,11.30
2019-03-16T20:39:34.088Z,11.30
2019-03-16T20:44:36.512Z,11.30
2019-03-16T20:49:38.017Z,11.20
2019-03-16T20:54:41.268Z,11.20
2019-03-16T20:59:43.539Z,11.20
2019-03-16T21:04:46.659Z,11.20
2019-03-16T21:09:48.263Z,11.20
2019-03-16T21:14:51.631Z,11.20
2019-03-16T21:19:53.181Z,11.20
2019-03-16T21:24:54.576Z,11.20
2019-03-16T21:29:56.039Z,11.10
2019-03-16T21:34:57.835Z,11.20
2019-03-16T21:39:59.214Z,11.20
2019-03-16T21:45:13.814Z,11.20
2019-03-16T21:50:15.905Z,11.20
2019-03-16T21:55:17.942Z,11.10
2019-03-16T22:00:20.688Z,11.10
2019-03-16T22:05:40.925Z,11.10
2019-03-16T22:10:43.417Z,11.10
2019-03-16T22:15:49.353Z,11.20
2019-03-16T22:20:52.732Z,11.10
2019-03-16T22:25:56.270Z,11.10
2019-03-16T22:30:57.568Z,11.10
2019-03-16T22:35:58.959Z,11.10
2019-03-16T22:41:00.308Z,11.10
2019-03-16T22:46:01.714Z,11.00
2019-03-16T22:51:03.352Z,11.00
2019-03-16T22:56:05.073Z,11.00
2019-03-16T23:01:06.796Z,11.00
2019-03-16T23:06:08.267Z,11.00
2019-03-16T23:11:10.730Z,10.90
2019-03-16T23:16:12.092Z,10.90
2019-03-16T23:21:13.705Z,10.90
2019-03-16T23:26:15.127Z,10.90
2019-03-16T23:31:16.769Z,10.90
2019-03-16T23:36:18.237Z,10.90
2019-03-16T23:41:19.631Z,10.80
2019-03-16T23:46:20.961Z,10.90
2019-03-16T23:51:22.335Z,10.90
2019-03-16T23:56:23.774Z,10.90
